Azuma Maru No.18 — JD2963 — position and weather

sailwx.info

Track history (hours):
 
Tides and Currents Weather Stations Pressure Air Temp Water Temp Dewpoint Dewpoint Depression Visibility Wind Speed Wind Dir Waves Ship Positions

Azuma Maru No.18

Last reported at 2017-Sep-07 18:34 UTC. Time now 2017-Sep-21 12:24 UTC.
Position N 34°54' E 140°02'.
Warning: this ship's position is 13 days out of date.

Length 105 m; draft 6.2 m.

Type: Tanker. MMSI: 431001096.

Date/timePositionNaut miles runAvg speedWind from/ knotsBaromVisibWave heightAir tempDewpointWater temp
2017-Sep-07 18:34N 34°54' E 140°02'112.3
2017-Sep-07 18:30N 34°53' E 140°01'812.8
2017-Sep-07 17:53N 34°51' E 139°52'512.4
2017-Sep-07 17:30N 34°53' E 139°47'714.0
2017-Sep-07 17:00N 34°59' E 139°43'713.5
2017-Sep-07 16:30N 35°05' E 139°43'713.8
2017-Sep-07 16:00N 35°12' E 139°46'612.3
2017-Sep-07 15:30N 35°18' E 139°44'611.6
2017-Sep-07 15:01N 35°23' E 139°43'713.1
2017-Sep-07 14:30N 35°28' E 139°48'713.3
2017-Sep-07 14:01N 35°31' E 139°55'5 0.4
2017-Sep-06 23:14N 35°30' E 140°01'1 2.9
2017-Sep-06 22:57N 35°30' E 140°01'2 3.8
2017-Sep-06 22:29N 35°32' E 139°59'1 1.2
2017-Sep-06 22:00N 35°32' E 139°59'0 0.0
2017-Sep-06 21:30N 35°32' E 139°59'0 0.0
2017-Sep-06 20:39N 35°32' E 139°59'0 0.0
2017-Sep-06 20:30N 35°32' E 139°59'0 0.1
2017-Sep-06 19:48N 35°32' E 139°59'0 0.0
2017-Sep-06 19:30N 35°32' E 139°59'0 0.0
2017-Sep-06 19:00N 35°32' E 139°59'0 0.0
2017-Sep-06 18:30N 35°32' E 139°59'0 0.0
2017-Sep-06 18:00N 35°32' E 139°59'0 0.0
2017-Sep-06 17:30N 35°32' E 139°59'0 0.0
2017-Sep-06 17:00N 35°32' E 139°59'0 0.0
2017-Sep-06 16:30N 35°32' E 139°59'0 0.0
2017-Sep-06 16:00N 35°32' E 139°59'0 0.1
2017-Sep-06 15:27N 35°32' E 139°59'0 0.0
2017-Sep-06 15:00N 35°32' E 139°59'0 0.0
2017-Sep-06 14:06N 35°32' E 139°59'0 0.0
2017-Sep-06 14:00N 35°32' E 139°59'0 0.0
2017-Sep-06 13:30N 35°32' E 139°59'0 0.0
2017-Sep-06 12:54N 35°32' E 139°59'0 0.0
2017-Sep-06 12:24N 35°32' E 139°59'0 0.0
2017-Sep-06 12:00N 35°32' E 139°59'0 0.0
2017-Sep-06 11:30N 35°32' E 139°59'0 0.0
2017-Sep-06 10:48N 35°32' E 139°59'0 0.0
2017-Sep-06 10:24N 35°32' E 139°59'0 0.0
2017-Sep-06 09:54N 35°32' E 139°59'0 0.0
2017-Sep-06 09:30N 35°32' E 139°59'0 0.0
2017-Sep-06 09:00N 35°32' E 139°59'0 0.0
2017-Sep-06 08:30N 35°32' E 139°59'0 0.1
2017-Sep-06 08:00N 35°32' E 139°59'0 0.1
2017-Sep-06 07:30N 35°32' E 139°59'0 0.0
2017-Sep-06 06:57N 35°32' E 139°59'0 0.0
2017-Sep-06 06:30N 35°32' E 139°59'0 0.1
2017-Sep-06 06:00N 35°32' E 139°59'0 0.0
2017-Sep-06 05:30N 35°32' E 139°59'0 0.1
2017-Sep-06 05:00N 35°32' E 139°59'0 0.0
2017-Sep-06 04:12N 35°32' E 139°59'0 0.0
2017-Sep-06 03:24N 35°32' E 139°59'0 0.0
2017-Sep-06 03:00N 35°32' E 139°59'0 0.0
2017-Sep-06 02:27N 35°32' E 139°59'0 0.0
2017-Sep-06 01:57N 35°32' E 139°59'0 0.0
2017-Sep-06 01:30N 35°32' E 139°59'0 0.0
2017-Sep-06 01:00N 35°32' E 139°59'0 0.0
2017-Sep-06 00:30N 35°32' E 139°59'0 0.0
2017-Sep-06 00:00N 35°32' E 139°59'0 0.0
2017-Sep-05 23:30N 35°32' E 139°59'0 0.0
2017-Sep-05 23:00N 35°32' E 139°59'0 0.0
2017-Sep-05 22:27N 35°32' E 139°59'0 0.0
2017-Sep-05 21:58N 35°32' E 139°59'2 4.5
2017-Sep-05 21:30N 35°31' E 139°57'611.3
2017-Sep-05 21:00N 35°28' E 139°51'612.3
2017-Sep-05 20:30N 35°23' E 139°46'4 8.3
2017-Sep-05 20:00N 35°19' E 139°44'5 9.3
2017-Sep-05 19:30N 35°15' E 139°47'612.7
2017-Sep-05 19:00N 35°09' E 139°46'612.8
2017-Sep-05 18:30N 35°03' E 139°42'713.8
2017-Sep-05 18:00N 34°59' E 139°35'714.8
2017-Sep-05 17:30N 34°55' E 139°28'22811.5
2017-Sep-04 21:36N 33°60' E 134°60'113.6
2017-Sep-04 21:30N 34°01' E 134°60'713.4
2017-Sep-04 21:00N 34°08' E 134°59'713.9
2017-Sep-04 20:30N 34°15' E 134°59'713.3
2017-Sep-04 20:00N 34°21' E 134°59'713.0
2017-Sep-04 19:27N 34°28' E 135°01'613.0
2017-Sep-04 19:01N 34°34' E 135°03'5 9.8
2017-Sep-04 18:30N 34°37' E 134°58'  
Track history (hours):
 
Tides and Currents Weather Stations Pressure Air Temp Water Temp Dewpoint Dewpoint Depression Visibility Wind Speed Wind Dir Waves Ship Positions

Azuma Maru No.18

Last reported at 2017-Sep-07 18:34 UTC. Time now 2017-Sep-21 12:24 UTC.
Position N 34°54' E 140°02'.
Warning: this ship's position is 13 days out of date.

Length 105 m; draft 6.2 m.

Type: Tanker. MMSI: 431001096.

Date/timePositionNaut miles runAvg speedWind from/ knotsBaromVisibWave heightAir tempDewpointWater temp
2017-Sep-07 18:34N 34°54' E 140°02'112.3
2017-Sep-07 18:30N 34°53' E 140°01'812.8
2017-Sep-07 17:53N 34°51' E 139°52'512.4
2017-Sep-07 17:30N 34°53' E 139°47'714.0
2017-Sep-07 17:00N 34°59' E 139°43'713.5
2017-Sep-07 16:30N 35°05' E 139°43'713.8
2017-Sep-07 16:00N 35°12' E 139°46'612.3
2017-Sep-07 15:30N 35°18' E 139°44'611.6
2017-Sep-07 15:01N 35°23' E 139°43'713.1
2017-Sep-07 14:30N 35°28' E 139°48'713.3
2017-Sep-07 14:01N 35°31' E 139°55'5 0.4
2017-Sep-06 23:14N 35°30' E 140°01'1 2.9
2017-Sep-06 22:57N 35°30' E 140°01'2 3.8
2017-Sep-06 22:29N 35°32' E 139°59'1 1.2
2017-Sep-06 22:00N 35°32' E 139°59'0 0.0
2017-Sep-06 21:30N 35°32' E 139°59'0 0.0
2017-Sep-06 20:39N 35°32' E 139°59'0 0.0
2017-Sep-06 20:30N 35°32' E 139°59'0 0.1
2017-Sep-06 19:48N 35°32' E 139°59'0 0.0
2017-Sep-06 19:30N 35°32' E 139°59'0 0.0
2017-Sep-06 19:00N 35°32' E 139°59'0 0.0
2017-Sep-06 18:30N 35°32' E 139°59'0 0.0
2017-Sep-06 18:00N 35°32' E 139°59'0 0.0
2017-Sep-06 17:30N 35°32' E 139°59'0 0.0
2017-Sep-06 17:00N 35°32' E 139°59'0 0.0
2017-Sep-06 16:30N 35°32' E 139°59'0 0.0
2017-Sep-06 16:00N 35°32' E 139°59'0 0.1
2017-Sep-06 15:27N 35°32' E 139°59'0 0.0
2017-Sep-06 15:00N 35°32' E 139°59'0 0.0
2017-Sep-06 14:06N 35°32' E 139°59'0 0.0
2017-Sep-06 14:00N 35°32' E 139°59'0 0.0
2017-Sep-06 13:30N 35°32' E 139°59'0 0.0
2017-Sep-06 12:54N 35°32' E 139°59'0 0.0
2017-Sep-06 12:24N 35°32' E 139°59'0 0.0
2017-Sep-06 12:00N 35°32' E 139°59'0 0.0
2017-Sep-06 11:30N 35°32' E 139°59'0 0.0
2017-Sep-06 10:48N 35°32' E 139°59'0 0.0
2017-Sep-06 10:24N 35°32' E 139°59'0 0.0
2017-Sep-06 09:54N 35°32' E 139°59'0 0.0
2017-Sep-06 09:30N 35°32' E 139°59'0 0.0
2017-Sep-06 09:00N 35°32' E 139°59'0 0.0
2017-Sep-06 08:30N 35°32' E 139°59'0 0.1
2017-Sep-06 08:00N 35°32' E 139°59'0 0.1
2017-Sep-06 07:30N 35°32' E 139°59'0 0.0
2017-Sep-06 06:57N 35°32' E 139°59'0 0.0
2017-Sep-06 06:30N 35°32' E 139°59'0 0.1
2017-Sep-06 06:00N 35°32' E 139°59'0 0.0
2017-Sep-06 05:30N 35°32' E 139°59'0 0.1
2017-Sep-06 05:00N 35°32' E 139°59'0 0.0
2017-Sep-06 04:12N 35°32' E 139°59'0 0.0
2017-Sep-06 03:24N 35°32' E 139°59'0 0.0
2017-Sep-06 03:00N 35°32' E 139°59'0 0.0
2017-Sep-06 02:27N 35°32' E 139°59'0 0.0
2017-Sep-06 01:57N 35°32' E 139°59'0 0.0
2017-Sep-06 01:30N 35°32' E 139°59'0 0.0
2017-Sep-06 01:00N 35°32' E 139°59'0 0.0
2017-Sep-06 00:30N 35°32' E 139°59'0 0.0
2017-Sep-06 00:00N 35°32' E 139°59'0 0.0
2017-Sep-05 23:30N 35°32' E 139°59'0 0.0
2017-Sep-05 23:00N 35°32' E 139°59'0 0.0
2017-Sep-05 22:27N 35°32' E 139°59'0 0.0
2017-Sep-05 21:58N 35°32' E 139°59'2 4.5
2017-Sep-05 21:30N 35°31' E 139°57'611.3
2017-Sep-05 21:00N 35°28' E 139°51'612.3
2017-Sep-05 20:30N 35°23' E 139°46'4 8.3
2017-Sep-05 20:00N 35°19' E 139°44'5 9.3
2017-Sep-05 19:30N 35°15' E 139°47'612.7
2017-Sep-05 19:00N 35°09' E 139°46'612.8
2017-Sep-05 18:30N 35°03' E 139°42'713.8
2017-Sep-05 18:00N 34°59' E 139°35'714.8
2017-Sep-05 17:30N 34°55' E 139°28'22811.5
2017-Sep-04 21:36N 33°60' E 134°60'113.6
2017-Sep-04 21:30N 34°01' E 134°60'713.4
2017-Sep-04 21:00N 34°08' E 134°59'713.9
2017-Sep-04 20:30N 34°15' E 134°59'713.3
2017-Sep-04 20:00N 34°21' E 134°59'713.0
2017-Sep-04 19:27N 34°28' E 135°01'613.0
2017-Sep-04 19:01N 34°34' E 135°03'5 9.8
2017-Sep-04 18:30N 34°37' E 134°58'  

Dump ship's entire track history